createdAt,value
2018-03-15T00:00:13.666Z,97094.06
2018-03-15T00:02:43.045Z,97093.56
2018-03-15T00:05:16.034Z,97087.83
2018-03-15T00:07:46.416Z,97081.05
2018-03-15T00:10:17.204Z,97081.30
2018-03-15T00:12:46.995Z,97080.89
2018-03-15T00:15:16.662Z,97084.67
2018-03-15T00:17:46.198Z,97089.05
2018-03-15T00:20:25.220Z,97095.39
2018-03-15T00:22:57.218Z,97091.22
2018-03-15T00:25:27.091Z,97085.69
2018-03-15T00:27:56.867Z,97086.48
2018-03-15T00:34:01.924Z,97089.29
2018-03-15T00:37:03.820Z,97084.45
2018-03-15T00:40:04.490Z,97082.20
2018-03-15T00:42:39.335Z,97085.46
2018-03-15T00:45:09.003Z,97090.48
2018-03-15T00:47:39.475Z,97069.33
2018-03-15T00:50:11.050Z,97079.01
2018-03-15T00:52:40.780Z,97076.20
2018-03-15T00:55:11.101Z,97077.34
2018-03-15T00:57:40.776Z,97076.38
2018-03-15T01:00:10.479Z,97070.11
2018-03-15T01:02:40.177Z,97067.61
2018-03-15T01:05:10.481Z,97066.09
2018-03-15T01:07:40.231Z,97062.14
2018-03-15T01:10:10.042Z,97063.41
2018-03-15T01:12:39.782Z,97057.00
2018-03-15T01:15:09.314Z,97060.76
2018-03-15T01:17:39.017Z,97054.66
2018-03-15T01:20:09.613Z,97054.01
2018-03-15T01:22:39.210Z,97058.92
2018-03-15T01:25:08.759Z,97053.34
2018-03-15T01:27:38.383Z,97052.59
2018-03-15T01:30:09.073Z,97047.95
2018-03-15T01:32:38.942Z,97046.48
2018-03-15T01:35:08.745Z,97035.41
2018-03-15T01:37:38.467Z,97036.80
2018-03-15T01:40:08.209Z,97043.84
2018-03-15T01:42:37.889Z,97045.66
2018-03-15T01:45:07.915Z,97028.04
2018-03-15T01:47:37.351Z,97037.25
2018-03-15T01:50:07.051Z,97026.47
2018-03-15T01:52:36.594Z,97024.14
2018-03-15T01:55:07.011Z,97021.52
2018-03-15T01:57:37.711Z,97013.19
2018-03-15T02:00:07.385Z,97021.41
2018-03-15T02:02:37.134Z,97016.17
2018-03-15T02:05:06.736Z,97018.15
2018-03-15T02:07:36.354Z,97018.13
2018-03-15T02:10:09.044Z,97014.77
2018-03-15T02:12:39.433Z,97027.77
2018-03-15T02:15:09.063Z,97028.73
2018-03-15T02:17:38.525Z,97029.62
2018-03-15T02:20:09.110Z,97021.45
2018-03-15T02:22:38.825Z,97021.90
2018-03-15T02:25:08.594Z,97021.88
2018-03-15T02:27:38.932Z,97019.60
2018-03-15T02:30:08.523Z,97000.41
2018-03-15T02:32:38.059Z,97009.55
2018-03-15T02:35:07.675Z,96999.30
2018-03-15T02:37:38.716Z,97010.18
2018-03-15T02:40:08.395Z,96998.20
2018-03-15T02:42:38.244Z,96995.67
2018-03-15T02:45:07.774Z,96984.61
2018-03-15T02:47:37.356Z,96986.81
2018-03-15T02:50:06.876Z,96987.33
2018-03-15T02:52:37.385Z,96992.75
2018-03-15T02:55:07.394Z,96989.48
2018-03-15T02:57:36.899Z,96983.19
2018-03-15T03:00:06.538Z,96979.25
2018-03-15T03:02:36.092Z,96988.16
2018-03-15T03:05:06.664Z,96974.29
2018-03-15T03:07:36.357Z,96981.86
2018-03-15T03:10:05.887Z,96984.59
2018-03-15T03:12:36.391Z,96980.28
2018-03-15T03:15:06.799Z,96989.20
2018-03-15T03:17:36.544Z,96979.52
2018-03-15T03:20:06.283Z,96972.31
2018-03-15T03:22:36.702Z,96971.69
2018-03-15T03:25:07.802Z,96965.58
2018-03-15T03:27:38.457Z,96966.39
2018-03-15T03:30:10.088Z,96969.11
2018-03-15T03:32:40.744Z,96963.31
2018-03-15T03:35:10.844Z,96966.91
2018-03-15T03:37:41.490Z,96963.41
2018-03-15T03:40:11.369Z,96962.72
2018-03-15T03:42:41.736Z,96969.36
2018-03-15T03:45:11.318Z,96967.09
2018-03-15T03:47:43.045Z,96952.07
2018-03-15T03:50:13.829Z,96965.06
2018-03-15T03:52:43.314Z,96966.03
2018-03-15T03:55:12.811Z,96970.50
2018-03-15T03:57:43.418Z,96968.02
2018-03-15T04:00:13.097Z,96973.05
2018-03-15T04:02:42.795Z,96977.71
2018-03-15T04:05:12.338Z,96968.52
2018-03-15T04:07:42.016Z,96980.58
2018-03-15T04:10:11.583Z,96988.82
2018-03-15T04:12:41.971Z,96977.49
2018-03-15T04:15:12.373Z,96979.76
2018-03-15T04:17:42.021Z,96975.86
2018-03-15T04:20:12.361Z,96981.45
2018-03-15T04:22:41.913Z,96964.66
2018-03-15T04:25:11.591Z,96967.52
2018-03-15T04:27:41.131Z,96969.86
2018-03-15T04:30:10.847Z,96956.00
2018-03-15T04:32:40.323Z,96963.51
2018-03-15T04:35:09.944Z,96969.34
2018-03-15T04:37:39.674Z,96959.92
2018-03-15T04:40:09.186Z,96963.25
2018-03-15T04:42:38.746Z,96963.23
2018-03-15T04:45:08.392Z,96967.30
2018-03-15T04:47:38.024Z,96969.31
2018-03-15T04:50:08.634Z,96965.31
2018-03-15T04:52:38.219Z,96956.64
2018-03-15T04:55:07.732Z,96970.36
2018-03-15T04:57:37.969Z,96965.66
2018-03-15T05:00:07.491Z,96973.78
2018-03-15T05:02:38.216Z,96968.45
2018-03-15T05:05:08.072Z,96965.84
2018-03-15T05:07:38.564Z,96969.56
2018-03-15T05:20:35.577Z,96946.83
2018-03-15T05:23:05.127Z,96942.97
2018-03-15T05:25:34.781Z,96945.61
2018-03-15T05:28:04.712Z,96942.81
2018-03-15T05:30:34.270Z,96947.20
2018-03-15T05:33:05.034Z,96936.42
2018-03-15T05:35:34.768Z,96940.30
2018-03-15T05:38:05.500Z,96938.76
2018-03-15T05:40:35.116Z,96930.06
2018-03-15T05:43:05.718Z,96923.73
2018-03-15T05:45:35.359Z,96937.22
2018-03-15T05:48:05.043Z,96945.24
2018-03-15T05:50:35.756Z,96943.34
2018-03-15T05:53:05.636Z,96947.23
2018-03-15T05:55:35.327Z,96946.70
2018-03-15T05:58:05.018Z,96935.80
2018-03-15T06:00:34.553Z,96927.08
2018-03-15T06:03:05.257Z,96936.42
2018-03-15T06:05:36.885Z,96935.61
2018-03-15T06:08:08.135Z,96936.03
2018-03-15T06:10:38.463Z,96940.05
2018-03-15T06:13:08.376Z,96934.77
2018-03-15T06:15:38.148Z,96932.84
2018-03-15T06:18:07.944Z,96934.55
2018-03-15T06:20:39.134Z,96935.66
2018-03-15T06:23:08.893Z,96930.54
2018-03-15T06:25:38.461Z,96928.87
2018-03-15T06:28:08.196Z,96928.73
2018-03-15T06:30:37.790Z,96929.52
2018-03-15T06:33:07.349Z,96924.49
2018-03-15T06:35:36.897Z,96922.77
2018-03-15T06:38:06.527Z,96923.60
2018-03-15T06:40:36.251Z,96927.77
2018-03-15T06:43:05.873Z,96922.25
2018-03-15T06:45:35.495Z,96923.30
2018-03-15T06:48:05.078Z,96928.78
2018-03-15T06:50:34.652Z,96934.41
2018-03-15T06:53:04.355Z,96935.71
2018-03-15T06:55:34.741Z,96926.75
2018-03-15T06:58:04.369Z,96932.60
2018-03-15T07:00:34.586Z,96939.52
2018-03-15T07:03:04.464Z,96944.30
2018-03-15T07:05:34.225Z,96930.80
2018-03-15T07:08:04.494Z,96945.50
2018-03-15T07:10:34.332Z,96948.95
2018-03-15T07:13:04.861Z,96952.63
2018-03-15T07:15:34.917Z,96944.16
2018-03-15T07:18:05.316Z,96948.85
2018-03-15T07:20:35.394Z,96946.30
2018-03-15T07:23:05.106Z,96952.44
2018-03-15T07:25:35.746Z,96950.39
2018-03-15T07:28:05.559Z,96951.20
2018-03-15T07:30:35.220Z,96961.73
2018-03-15T07:33:05.802Z,96968.23
2018-03-15T07:35:36.118Z,96971.84
2018-03-15T07:38:06.080Z,96969.78
2018-03-15T07:40:36.341Z,96966.87
2018-03-15T07:43:06.067Z,96967.33
2018-03-15T07:45:35.786Z,96959.10
2018-03-15T07:48:05.432Z,96945.98
2018-03-15T07:50:35.760Z,96951.33
2018-03-15T07:53:06.306Z,96951.06
2018-03-15T07:55:36.031Z,96953.86
2018-03-15T07:58:06.029Z,96950.44
2018-03-15T08:00:37.279Z,96950.60
2018-03-15T08:03:07.485Z,96955.11
2018-03-15T08:05:38.010Z,96971.86
2018-03-15T08:08:08.494Z,96969.57
2018-03-15T08:10:38.556Z,96975.42
2018-03-15T08:13:08.547Z,96978.00
2018-03-15T08:15:41.638Z,96979.50
2018-03-15T08:18:11.259Z,96977.03
2018-03-15T08:20:40.760Z,96982.87
2018-03-15T08:23:10.347Z,96965.08
2018-03-15T08:25:40.666Z,96971.30
2018-03-15T08:28:10.276Z,96962.84
2018-03-15T08:30:39.798Z,96968.80
2018-03-15T08:33:09.596Z,96961.86
2018-03-15T08:35:39.186Z,96970.48
2018-03-15T08:38:10.007Z,96967.84
2018-03-15T08:40:40.554Z,96979.72
2018-03-15T08:43:11.592Z,96972.52
2018-03-15T08:45:41.435Z,96973.16
2018-03-15T08:48:11.032Z,96974.99
2018-03-15T08:50:40.628Z,96973.92
2018-03-15T08:53:10.411Z,96967.31
2018-03-15T08:55:40.917Z,96956.04
2018-03-15T08:58:11.319Z,96948.68
2018-03-15T09:00:41.029Z,96959.38
2018-03-15T09:03:10.700Z,96947.57
2018-03-15T09:05:41.492Z,96945.52
2018-03-15T09:08:12.603Z,96937.17
2018-03-15T09:10:42.714Z,96940.62
2018-03-15T09:13:12.181Z,96943.40
2018-03-15T09:15:42.570Z,96933.07
2018-03-15T09:18:12.384Z,96939.17
2018-03-15T09:20:41.876Z,96927.31
2018-03-15T09:23:11.382Z,96923.92
2018-03-15T09:25:41.100Z,96927.63
2018-03-15T09:28:10.764Z,96920.06
2018-03-15T09:30:41.142Z,96928.18
2018-03-15T09:33:10.904Z,96918.12
2018-03-15T09:35:40.558Z,96928.66
2018-03-15T09:38:10.468Z,96907.53
2018-03-15T09:40:40.199Z,96921.48
2018-03-15T09:43:11.927Z,96926.06
2018-03-15T09:45:43.198Z,96908.37
2018-03-15T09:48:13.003Z,96911.02
2018-03-15T09:50:43.541Z,96893.19
2018-03-15T09:53:13.956Z,96898.80
2018-03-15T09:55:43.434Z,96914.27
2018-03-15T09:58:13.225Z,96917.07
2018-03-15T10:00:42.928Z,96921.84
2018-03-15T10:03:13.258Z,96910.04
2018-03-15T10:05:42.826Z,96912.17
2018-03-15T10:08:12.532Z,96903.09
2018-03-15T10:10:42.082Z,96907.80
2018-03-15T10:13:11.843Z,96883.96
2018-03-15T10:15:42.330Z,96880.62
2018-03-15T10:18:13.923Z,96869.99
2018-03-15T10:20:46.489Z,96868.40
2018-03-15T10:23:16.247Z,96871.38
2018-03-15T10:25:46.797Z,96874.63
2018-03-15T10:28:17.442Z,96870.68
2018-03-15T10:30:46.952Z,96850.34
2018-03-15T10:33:21.997Z,96838.77
2018-03-15T10:35:51.526Z,96843.48
2018-03-15T10:38:21.949Z,96834.16
2018-03-15T10:40:51.680Z,96838.86
2018-03-15T10:43:22.921Z,96841.94
2018-03-15T10:45:52.619Z,96826.22
2018-03-15T10:48:22.338Z,96811.23
2018-03-15T10:50:52.865Z,96808.53
2018-03-15T10:53:22.651Z,96812.33
2018-03-15T10:55:52.392Z,96806.38
2018-03-15T10:58:43.495Z,96805.28
2018-03-15T11:01:26.445Z,96799.08
2018-03-15T11:04:11.930Z,96796.80
2018-03-15T11:10:01.645Z,96796.92
2018-03-15T11:12:35.297Z,96781.95
2018-03-15T11:15:06.612Z,96771.83
2018-03-15T11:17:36.515Z,96782.45
2018-03-15T11:20:07.036Z,96782.36
2018-03-15T11:22:36.878Z,96762.94
2018-03-15T11:25:06.437Z,96768.47
2018-03-15T11:27:36.236Z,96749.84
2018-03-15T11:30:06.916Z,96759.98
2018-03-15T11:32:37.618Z,96758.34
2018-03-15T11:35:07.416Z,96763.33
2018-03-15T11:37:39.056Z,96763.73
2018-03-15T11:40:08.967Z,96756.20
2018-03-15T11:42:38.703Z,96755.22
2018-03-15T11:45:08.609Z,96741.63
2018-03-15T11:47:38.297Z,96725.70
2018-03-15T11:50:07.909Z,96735.29
2018-03-15T11:52:38.531Z,96707.25
2018-03-15T11:55:08.171Z,96717.48
2018-03-15T11:57:37.989Z,96708.04
2018-03-15T12:00:07.936Z,96697.27
2018-03-15T12:02:37.857Z,96685.13
2018-03-15T12:05:08.649Z,96692.30
2018-03-15T12:07:39.256Z,96689.73
2018-03-15T12:10:11.650Z,96689.05
2018-03-15T12:12:41.276Z,96688.77
2018-03-15T12:15:11.338Z,96672.61
2018-03-15T12:17:41.361Z,96667.33
2018-03-15T12:20:11.536Z,96665.55
2018-03-15T12:22:42.896Z,96669.96
2018-03-15T12:25:16.017Z,96655.16
2018-03-15T12:27:46.572Z,96667.80
2018-03-15T12:30:16.340Z,96659.44
2018-03-15T12:32:45.987Z,96645.31
2018-03-15T12:35:16.955Z,96656.11
2018-03-15T12:37:46.790Z,96625.67
2018-03-15T12:40:16.772Z,96638.89
2018-03-15T12:42:47.916Z,96628.50
2018-03-15T12:45:17.542Z,96617.20
2018-03-15T12:47:51.063Z,96628.53
2018-03-15T12:50:20.746Z,96615.73
2018-03-15T12:52:53.251Z,96610.47
2018-03-15T12:55:23.712Z,96608.19
2018-03-15T12:57:53.224Z,96597.67
2018-03-15T13:00:24.428Z,96591.20
2018-03-15T13:02:54.461Z,96594.97
2018-03-15T13:05:23.991Z,96594.84
2018-03-15T13:07:55.378Z,96591.85
2018-03-15T13:10:26.470Z,96584.56
2018-03-15T13:12:56.058Z,96590.22
2018-03-15T13:15:25.597Z,96607.73
2018-03-15T13:17:55.287Z,96614.20
2018-03-15T13:20:28.177Z,96607.35
2018-03-15T13:22:57.890Z,96603.57
2018-03-15T13:25:29.065Z,96593.02
2018-03-15T13:28:00.270Z,96598.39
2018-03-15T13:30:30.862Z,96594.30
2018-03-15T13:33:00.359Z,96589.94
2018-03-15T13:35:29.967Z,96579.31
2018-03-15T13:37:59.914Z,96570.75
2018-03-15T13:40:29.604Z,96547.87
2018-03-15T13:42:59.203Z,96547.45
2018-03-15T13:45:28.888Z,96550.27
2018-03-15T13:47:58.372Z,96529.29
2018-03-15T13:50:28.633Z,96538.28
2018-03-15T13:52:58.363Z,96534.47
2018-03-15T13:55:28.140Z,96538.63
2018-03-15T13:57:58.783Z,96538.30
2018-03-15T14:00:28.283Z,96544.26
2018-03-15T14:02:58.181Z,96532.70
2018-03-15T14:05:28.567Z,96542.15
2018-03-15T14:07:58.173Z,96536.20
2018-03-15T14:10:29.809Z,96534.53
2018-03-15T14:12:59.344Z,96528.48
2018-03-15T14:15:28.867Z,96514.23
2018-03-15T14:18:00.114Z,96508.91
2018-03-15T14:20:29.861Z,96505.94
2018-03-15T14:22:59.387Z,96495.28
2018-03-15T14:25:29.038Z,96496.91
2018-03-15T14:27:59.535Z,96493.28
2018-03-15T14:30:29.986Z,96491.38
2018-03-15T14:33:00.417Z,96485.89
2018-03-15T14:35:30.751Z,96492.20
2018-03-15T14:38:01.163Z,96486.56
2018-03-15T14:40:31.644Z,96489.11
2018-03-15T14:43:01.253Z,96483.59
2018-03-15T14:45:30.765Z,96483.19
2018-03-15T14:48:00.456Z,96494.39
2018-03-15T14:50:30.074Z,96485.94
2018-03-15T14:53:00.314Z,96481.38
2018-03-15T14:55:29.867Z,96490.53
2018-03-15T14:58:02.065Z,96491.07
2018-03-15T15:13:19.686Z,96477.23
2018-03-15T15:15:49.603Z,96480.84
2018-03-15T15:18:21.210Z,96469.20
2018-03-15T15:20:51.016Z,96469.30
2018-03-15T15:23:21.687Z,96463.62
2018-03-15T15:25:52.069Z,96464.58
2018-03-15T15:28:21.686Z,96468.78
2018-03-15T15:30:51.151Z,96459.47
2018-03-15T15:33:20.995Z,96443.98
2018-03-15T15:35:51.526Z,96446.11
2018-03-15T15:38:21.187Z,96437.23
2018-03-15T15:40:50.818Z,96437.51
2018-03-15T15:43:20.418Z,96433.91
2018-03-15T15:45:50.015Z,96436.71
2018-03-15T15:48:20.704Z,96439.53
2018-03-15T15:50:50.313Z,96434.69
2018-03-15T15:53:20.426Z,96434.29
2018-03-15T15:55:50.326Z,96428.39
2018-03-15T15:58:20.039Z,96436.14
2018-03-15T16:00:50.418Z,96431.44
2018-03-15T16:03:21.100Z,96425.95
2018-03-15T16:05:51.627Z,96428.90
2018-03-15T16:08:27.006Z,96419.11
2018-03-15T16:10:59.111Z,96418.55
2018-03-15T16:13:29.106Z,96417.44
2018-03-15T16:15:59.827Z,96418.23
2018-03-15T16:18:31.127Z,96404.78
2018-03-15T16:21:00.847Z,96422.53
2018-03-15T16:23:30.450Z,96415.28
2018-03-15T16:26:00.985Z,96410.99
2018-03-15T16:28:30.793Z,96404.27
2018-03-15T16:31:01.009Z,96393.36
2018-03-15T16:33:31.043Z,96396.30
2018-03-15T16:36:01.098Z,96404.09
2018-03-15T16:38:31.987Z,96406.41
2018-03-15T16:41:02.092Z,96406.80
2018-03-15T16:43:31.998Z,96403.03
2018-03-15T16:46:02.580Z,96396.70
2018-03-15T16:48:33.692Z,96396.56
2018-03-15T16:51:03.481Z,96382.47
2018-03-15T16:53:35.689Z,96377.52
2018-03-15T16:56:05.783Z,96380.09
2018-03-15T16:58:36.041Z,96385.31
2018-03-15T17:01:05.889Z,96385.19
2018-03-15T17:03:36.413Z,96394.97
2018-03-15T17:06:13.482Z,96384.39
2018-03-15T17:08:43.062Z,96388.84
2018-03-15T17:11:15.556Z,96385.75
2018-03-15T17:13:45.223Z,96393.96
2018-03-15T17:16:14.974Z,96392.92
2018-03-15T17:18:46.326Z,96387.83
2018-03-15T17:21:16.948Z,96390.13
2018-03-15T17:23:46.760Z,96381.67
2018-03-15T17:26:24.023Z,96389.88
2018-03-15T17:28:59.214Z,96388.95
2018-03-15T17:31:29.368Z,96388.70
2018-03-15T17:33:59.962Z,96386.16
2018-03-15T17:36:30.968Z,96380.83
2018-03-15T17:39:01.201Z,96383.59
2018-03-15T17:41:33.350Z,96393.81
2018-03-15T17:44:04.967Z,96398.77
2018-03-15T17:46:34.927Z,96402.95
2018-03-15T17:49:10.655Z,96390.72
2018-03-15T17:51:46.306Z,96390.44
2018-03-15T17:54:17.273Z,96376.20
2018-03-15T17:56:50.607Z,96364.91
2018-03-15T17:59:25.896Z,96362.62
2018-03-15T18:01:57.583Z,96360.09
2018-03-15T18:04:29.151Z,96356.21
2018-03-15T18:06:59.205Z,96352.84
2018-03-15T18:09:29.674Z,96363.58
2018-03-15T18:12:17.188Z,96354.45
2018-03-15T18:14:48.035Z,96359.16
2018-03-15T18:17:18.509Z,96357.40
2018-03-15T18:19:48.741Z,96364.00
2018-03-15T18:22:23.242Z,96359.81
2018-03-15T18:24:54.086Z,96348.66
2018-03-15T18:27:24.627Z,96354.19
2018-03-15T18:29:57.734Z,96339.12
2018-03-15T18:33:04.037Z,96328.66
2018-03-15T18:35:35.105Z,96336.58
2018-03-15T18:38:07.014Z,96340.92
2018-03-15T18:40:46.853Z,96330.39
2018-03-15T18:43:16.938Z,96318.70
2018-03-15T18:45:49.513Z,96321.27
2018-03-15T18:48:19.833Z,96328.13
2018-03-15T18:50:52.020Z,96330.53
2018-03-15T18:53:23.123Z,96318.18
2018-03-15T18:55:53.175Z,96316.29
2018-03-15T18:58:23.508Z,96309.45
2018-03-15T19:01:02.082Z,96317.10
2018-03-15T19:03:32.513Z,96352.97
2018-03-15T19:06:02.821Z,96338.47
2018-03-15T19:08:32.860Z,96346.39
2018-03-15T19:11:05.469Z,96336.98
2018-03-15T19:13:36.414Z,96340.61
2018-03-15T19:16:09.707Z,96337.64
2018-03-15T19:18:47.030Z,96335.36
2018-03-15T19:21:19.277Z,96321.91
2018-03-15T19:23:49.570Z,96339.80
2018-03-15T19:26:21.997Z,96346.22
2018-03-15T19:29:16.033Z,96365.44
2018-03-15T19:31:47.014Z,96307.55
2018-03-15T19:34:23.481Z,96336.13
2018-03-15T19:36:55.821Z,96307.52
2018-03-15T19:39:26.472Z,96273.53
2018-03-15T19:41:57.098Z,96268.04
2018-03-15T19:44:27.365Z,96308.20
2018-03-15T19:46:59.150Z,96313.03
2018-03-15T19:49:30.401Z,96326.98
2018-03-15T19:52:01.002Z,96301.20
2018-03-15T19:54:31.268Z,96287.90
2018-03-15T19:57:11.000Z,96276.90
2018-03-15T19:59:42.493Z,96264.38
2018-03-15T20:02:24.394Z,96262.24
2018-03-15T20:04:56.505Z,96302.95
2018-03-15T20:07:35.023Z,96291.27
2018-03-15T20:13:40.734Z,96285.90
2018-03-15T20:16:16.037Z,96298.25
2018-03-15T20:18:46.077Z,96279.73
2018-03-15T20:21:16.199Z,96281.09
2018-03-15T20:23:51.858Z,96306.47
2018-03-15T20:26:21.796Z,96296.80
2018-03-15T20:28:51.651Z,96314.41
2018-03-15T20:31:22.684Z,96310.51
2018-03-15T20:34:03.410Z,96304.73
2018-03-15T20:36:37.860Z,96303.94
2018-03-15T20:39:27.298Z,96293.72
2018-03-15T20:41:59.482Z,96307.14
2018-03-15T20:44:33.377Z,96284.49
2018-03-15T20:47:33.171Z,96283.91
2018-03-15T20:50:04.730Z,96277.86
2018-03-15T20:52:37.275Z,96302.98
2018-03-15T20:55:19.174Z,96299.36
2018-03-15T20:57:51.909Z,96308.48
2018-03-15T21:00:23.572Z,96289.80
2018-03-15T21:02:55.743Z,96299.35
2018-03-15T21:05:32.509Z,96292.15
2018-03-15T21:08:02.678Z,96295.72
2018-03-15T21:10:32.811Z,96311.03
2018-03-15T21:13:03.502Z,96306.48
2018-03-15T21:15:34.848Z,96311.45
2018-03-15T21:18:08.263Z,96311.97
2018-03-15T21:20:45.087Z,96295.84
2018-03-15T21:23:16.509Z,96316.27
2018-03-15T21:25:47.440Z,96275.41
2018-03-15T21:28:24.910Z,96294.77
2018-03-15T21:30:56.067Z,96281.06
2018-03-15T21:33:28.028Z,96275.27
2018-03-15T21:36:11.026Z,96290.18
2018-03-15T21:39:04.562Z,96277.42
2018-03-15T21:41:42.004Z,96283.48
2018-03-15T21:44:13.556Z,96263.06
2018-03-15T21:46:44.618Z,96272.32
2018-03-15T21:49:14.515Z,96263.17
2018-03-15T21:51:44.928Z,96274.34
2018-03-15T21:54:38.214Z,96251.78
2018-03-15T21:57:27.704Z,96243.31
2018-03-15T21:59:58.221Z,96260.23
2018-03-15T22:02:28.081Z,96254.06
2018-03-15T22:04:58.750Z,96235.66
2018-03-15T22:07:28.824Z,96243.45
2018-03-15T22:09:59.704Z,96234.71
2018-03-15T22:12:32.259Z,96225.05
2018-03-15T22:15:02.596Z,96221.30
2018-03-15T22:17:39.046Z,96225.45
2018-03-15T22:20:09.410Z,96223.58
2018-03-15T22:22:39.148Z,96196.55
2018-03-15T22:25:44.205Z,96208.66
2018-03-15T22:28:22.440Z,96199.78
2018-03-15T22:31:02.744Z,96223.70
2018-03-15T22:37:06.688Z,96218.47
2018-03-15T22:39:36.630Z,96221.55
2018-03-15T22:42:06.215Z,96221.95
2018-03-15T22:44:53.010Z,96199.12
2018-03-15T22:47:39.002Z,96199.38
2018-03-15T22:50:09.296Z,96177.63
2018-03-15T22:52:40.295Z,96185.02
2018-03-15T22:55:25.888Z,96194.27
2018-03-15T22:57:59.399Z,96213.50
2018-03-15T23:01:06.034Z,96225.59
2018-03-15T23:03:37.331Z,96227.06
2018-03-15T23:06:07.597Z,96218.86
2018-03-15T23:08:38.780Z,96211.06
2018-03-15T23:11:14.006Z,96218.88
2018-03-15T23:13:45.609Z,96212.16
2018-03-15T23:16:21.875Z,96213.13
2018-03-15T23:18:52.464Z,96221.58
2018-03-15T23:21:22.286Z,96225.86
2018-03-15T23:23:52.323Z,96229.78
2018-03-15T23:26:23.005Z,96228.95
2018-03-15T23:28:56.708Z,96211.47
2018-03-15T23:31:28.252Z,96224.50
2018-03-15T23:34:00.706Z,96220.21
2018-03-15T23:36:40.305Z,96208.11
2018-03-15T23:39:13.643Z,96210.52
2018-03-15T23:42:01.702Z,96210.91
2018-03-15T23:44:32.350Z,96216.84
2018-03-15T23:47:03.712Z,96205.55
2018-03-15T23:49:36.001Z,96188.60
2018-03-15T23:52:06.057Z,96187.78
2018-03-15T23:54:41.340Z,96173.68
2018-03-15T23:57:12.397Z,96182.80
2018-03-15T23:59:45.316Z,96170.41
